createdAt,value
2023-06-15T00:03:01.850Z,17.36
2023-06-15T00:06:04.147Z,17.33
2023-06-15T00:09:06.444Z,17.28
2023-06-15T00:12:10.608Z,17.27
2023-06-15T00:15:17.308Z,17.26
2023-06-15T00:18:20.373Z,17.28
2023-06-15T00:21:27.423Z,17.23
2023-06-15T00:24:29.992Z,17.13
2023-06-15T00:27:32.416Z,17.05
2023-06-15T00:30:34.768Z,17.09
2023-06-15T00:33:37.148Z,17.09
2023-06-15T00:36:42.805Z,17.02
2023-06-15T00:39:50.469Z,17.05
2023-06-15T00:42:55.362Z,17.01
2023-06-15T00:46:00.568Z,17.01
2023-06-15T00:49:04.533Z,16.92
2023-06-15T00:52:10.145Z,16.79
2023-06-15T00:55:20.075Z,16.84
2023-06-15T00:58:23.213Z,16.89
2023-06-15T01:01:27.518Z,16.93
2023-06-15T01:04:32.473Z,16.95
2023-06-15T01:07:36.408Z,16.92
2023-06-15T01:10:42.079Z,16.92
2023-06-15T01:13:50.094Z,16.87
2023-06-15T01:17:00.602Z,16.88
2023-06-15T01:20:06.231Z,16.76
2023-06-15T01:23:14.408Z,16.73
2023-06-15T01:26:25.199Z,16.71
2023-06-15T01:29:36.551Z,16.66
2023-06-15T01:32:38.948Z,16.66
2023-06-15T01:35:44.010Z,16.62
2023-06-15T01:38:55.641Z,16.59
2023-06-15T01:42:02.340Z,16.48
2023-06-15T01:45:05.727Z,16.53
2023-06-15T01:48:11.302Z,16.51
2023-06-15T01:51:21.010Z,16.48
2023-06-15T01:54:23.333Z,16.41
2023-06-15T01:57:32.057Z,16.31
2023-06-15T02:00:46.203Z,16.44
2023-06-15T02:03:48.523Z,16.30
2023-06-15T02:06:50.760Z,16.37
2023-06-15T02:09:54.244Z,16.28
2023-06-15T02:13:00.879Z,16.29
2023-06-15T02:16:08.234Z,16.23
2023-06-15T02:19:10.564Z,16.16
2023-06-15T02:22:14.188Z,16.13
2023-06-15T02:25:16.608Z,16.12
2023-06-15T02:28:19.149Z,16.00
2023-06-15T02:31:26.312Z,15.92
2023-06-15T02:34:31.770Z,15.90
2023-06-15T02:37:39.560Z,15.89
2023-06-15T02:40:42.198Z,15.74
2023-06-15T02:43:44.576Z,15.78
2023-06-15T02:46:49.391Z,15.27
2023-06-15T02:49:51.768Z,15.52
2023-06-15T02:52:54.589Z,15.48
2023-06-15T02:55:58.304Z,15.57
2023-06-15T02:59:01.404Z,15.53
2023-06-15T03:02:34.966Z,15.50
2023-06-15T03:05:40.709Z,15.40
2023-06-15T03:08:46.077Z,15.43
2023-06-15T03:11:54.965Z,15.20
2023-06-15T03:15:05.704Z,15.38
2023-06-15T03:18:13.096Z,15.34
2023-06-15T03:21:21.291Z,15.35
2023-06-15T03:24:26.970Z,15.32
2023-06-15T03:27:31.058Z,15.23
2023-06-15T03:30:35.880Z,15.27
2023-06-15T03:33:43.748Z,15.26
2023-06-15T03:36:52.594Z,15.27
2023-06-15T03:39:58.295Z,15.32
2023-06-15T03:43:03.541Z,15.36
2023-06-15T03:46:14.577Z,15.41
2023-06-15T03:49:19.877Z,15.40
2023-06-15T03:52:22.825Z,15.44
2023-06-15T03:55:26.344Z,15.45
2023-06-15T03:58:29.139Z,15.59
2023-06-15T04:01:34.103Z,15.66
2023-06-15T04:04:40.828Z,15.73
2023-06-15T04:07:45.538Z,15.70
2023-06-15T04:10:47.964Z,15.82
2023-06-15T04:13:57.615Z,15.87
2023-06-15T04:16:59.957Z,16.09
2023-06-15T04:20:05.783Z,16.11
2023-06-15T04:23:10.044Z,16.36
2023-06-15T04:26:14.484Z,16.54
2023-06-15T04:29:19.631Z,16.75
2023-06-15T04:32:26.881Z,16.91
2023-06-15T04:35:33.361Z,17.09
2023-06-15T04:38:38.044Z,17.20
2023-06-15T04:41:43.522Z,17.44
2023-06-15T04:44:48.593Z,17.61
2023-06-15T04:47:51.720Z,17.60
2023-06-15T04:50:54.845Z,17.43
2023-06-15T04:53:57.395Z,17.60
2023-06-15T04:57:02.021Z,17.73
2023-06-15T05:00:08.195Z,17.77
2023-06-15T05:03:15.252Z,17.92
2023-06-15T05:06:18.219Z,18.07
2023-06-15T05:09:26.008Z,18.23
2023-06-15T05:12:29.380Z,18.50
2023-06-15T05:15:34.680Z,18.66
2023-06-15T05:18:39.423Z,18.70
2023-06-15T05:21:44.353Z,18.77
2023-06-15T05:24:46.777Z,19.01
2023-06-15T05:27:51.998Z,19.54
2023-06-15T05:30:55.231Z,19.79
2023-06-15T05:34:00.164Z,19.90
2023-06-15T05:37:03.169Z,19.87
2023-06-15T05:40:11.113Z,20.00
2023-06-15T05:43:13.729Z,20.28
2023-06-15T05:46:16.312Z,20.36
2023-06-15T05:49:18.642Z,20.42
2023-06-15T05:52:21.495Z,20.35
2023-06-15T05:55:24.766Z,20.82
2023-06-15T05:58:29.533Z,21.13
2023-06-15T06:01:32.156Z,21.09
2023-06-15T06:04:37.245Z,21.23
2023-06-15T06:07:41.781Z,21.17
2023-06-15T06:10:44.096Z,21.56
2023-06-15T06:14:01.000Z,21.66
2023-06-15T06:17:06.692Z,21.80
2023-06-15T06:20:10.953Z,21.65
2023-06-15T06:23:13.411Z,22.12
2023-06-15T06:26:15.787Z,22.26
2023-06-15T06:29:18.051Z,22.40
2023-06-15T06:32:21.700Z,22.29
2023-06-15T06:35:26.322Z,23.03
2023-06-15T06:38:28.914Z,23.58
2023-06-15T06:41:33.584Z,24.16
2023-06-15T06:44:38.295Z,24.23
2023-06-15T06:47:42.831Z,24.57
2023-06-15T06:50:45.323Z,24.74
2023-06-15T06:53:48.214Z,24.68
2023-06-15T06:56:55.831Z,24.92
2023-06-15T06:59:58.170Z,25.34
2023-06-15T07:03:02.842Z,26.00
2023-06-15T07:06:07.590Z,26.04
2023-06-15T07:09:09.885Z,25.86
2023-06-15T07:12:14.322Z,26.55
2023-06-15T07:15:19.041Z,26.58
2023-06-15T07:18:24.219Z,27.46
2023-06-15T07:21:26.951Z,27.65
2023-06-15T07:24:29.293Z,27.57
2023-06-15T07:27:31.752Z,27.96
2023-06-15T07:30:36.363Z,28.58
2023-06-15T07:33:41.803Z,28.68
2023-06-15T07:36:44.200Z,28.12
2023-06-15T07:39:46.595Z,27.99
2023-06-15T07:42:48.953Z,28.16
2023-06-15T07:45:53.889Z,28.21
2023-06-15T07:49:01.395Z,28.40
2023-06-15T07:52:10.600Z,28.37
2023-06-15T07:55:13.470Z,28.00
2023-06-15T07:58:15.990Z,28.45
2023-06-15T08:01:24.020Z,29.11
2023-06-15T08:04:26.381Z,29.29
2023-06-15T08:07:31.575Z,28.78
2023-06-15T08:10:36.513Z,28.75
2023-06-15T08:13:41.320Z,29.28
2023-06-15T08:16:43.645Z,29.78
2023-06-15T08:19:46.887Z,30.52
2023-06-15T08:22:49.300Z,30.20
2023-06-15T08:25:53.928Z,30.56
2023-06-15T08:29:09.803Z,30.73
2023-06-15T08:32:23.919Z,30.67
2023-06-15T08:35:26.337Z,31.03
2023-06-15T08:38:28.663Z,30.93
2023-06-15T08:41:31.336Z,30.77
2023-06-15T08:44:34.994Z,29.82
2023-06-15T08:47:38.092Z,29.89
2023-06-15T08:50:43.866Z,30.21
2023-06-15T08:53:51.365Z,30.46
2023-06-15T08:56:56.638Z,30.41
2023-06-15T09:00:00.268Z,30.73
2023-06-15T09:03:08.601Z,30.60
2023-06-15T09:06:14.089Z,30.94
2023-06-15T09:09:18.672Z,31.23
2023-06-15T09:12:23.399Z,29.53
2023-06-15T09:15:28.796Z,29.74
2023-06-15T09:18:46.128Z,30.03
2023-06-15T09:21:54.942Z,29.79
2023-06-15T09:24:57.318Z,29.41
2023-06-15T09:28:10.463Z,29.16
2023-06-15T09:31:31.657Z,29.44
2023-06-15T09:34:38.268Z,29.85
2023-06-15T09:37:40.863Z,29.01
2023-06-15T09:40:45.600Z,28.20
2023-06-15T09:43:52.386Z,28.30
2023-06-15T09:46:58.613Z,27.53
2023-06-15T09:50:01.051Z,27.53
2023-06-15T09:53:03.863Z,27.49
2023-06-15T09:56:17.305Z,27.74
2023-06-15T09:59:29.525Z,28.22
2023-06-15T10:02:32.969Z,27.82
2023-06-15T10:05:44.373Z,27.63
2023-06-15T10:08:54.289Z,28.03
2023-06-15T10:12:07.871Z,27.94
2023-06-15T10:15:19.484Z,28.16
2023-06-15T10:18:23.757Z,27.31
2023-06-15T10:21:30.259Z,27.33
2023-06-15T10:24:33.737Z,27.43
2023-06-15T10:27:36.449Z,27.57
2023-06-15T10:31:07.147Z,27.31
2023-06-15T10:34:42.596Z,27.04
2023-06-15T10:37:44.965Z,27.49
2023-06-15T10:40:49.271Z,27.01
2023-06-15T10:44:02.835Z,27.03
2023-06-15T10:47:09.898Z,26.70
2023-06-15T10:50:17.157Z,26.62
2023-06-15T10:53:27.928Z,26.69
2023-06-15T10:56:35.464Z,26.35
2023-06-15T10:59:50.836Z,26.38
2023-06-15T11:03:00.858Z,26.38
2023-06-15T11:06:16.622Z,26.64
2023-06-15T11:09:22.024Z,26.63
2023-06-15T11:12:40.920Z,26.67
2023-06-15T11:15:43.836Z,26.79
2023-06-15T11:18:58.461Z,26.80
2023-06-15T11:22:02.921Z,27.08
2023-06-15T11:25:12.450Z,27.19
2023-06-15T11:28:35.018Z,27.22
2023-06-15T11:31:42.145Z,26.90
2023-06-15T11:34:46.650Z,26.66
2023-06-15T11:37:48.925Z,26.45
2023-06-15T11:40:51.766Z,26.32
2023-06-15T11:43:59.868Z,26.40
2023-06-15T11:47:03.084Z,26.29
2023-06-15T11:50:08.975Z,26.38
2023-06-15T11:53:20.265Z,26.41
2023-06-15T11:56:26.127Z,26.77
2023-06-15T11:59:36.615Z,26.73
2023-06-15T12:02:42.455Z,26.82
2023-06-15T12:05:46.092Z,26.69
2023-06-15T12:08:56.751Z,26.51
2023-06-15T12:11:59.159Z,26.27
2023-06-15T12:15:03.091Z,26.46
2023-06-15T12:18:10.750Z,26.11
2023-06-15T12:21:19.968Z,26.31
2023-06-15T12:24:28.462Z,26.42
2023-06-15T12:27:34.821Z,26.64
2023-06-15T12:30:40.756Z,26.68
2023-06-15T12:33:53.593Z,26.80
2023-06-15T12:36:57.413Z,26.91
2023-06-15T12:40:02.590Z,26.22
2023-06-15T12:43:05.052Z,26.41
2023-06-15T12:46:07.722Z,26.54
2023-06-15T12:49:14.059Z,26.64
2023-06-15T12:52:21.210Z,26.55
2023-06-15T12:55:26.672Z,26.64
2023-06-15T12:58:33.210Z,26.63
2023-06-15T13:01:37.767Z,26.51
2023-06-15T13:04:46.258Z,26.29
2023-06-15T13:07:49.196Z,26.08
2023-06-15T13:10:54.783Z,26.24
2023-06-15T13:13:59.512Z,26.10
2023-06-15T13:17:02.360Z,25.97
2023-06-15T13:20:14.408Z,26.13
2023-06-15T13:23:16.760Z,26.04
2023-06-15T13:26:19.046Z,26.22
2023-06-15T13:29:21.327Z,26.44
2023-06-15T13:32:26.022Z,26.49
2023-06-15T13:35:30.637Z,26.52
2023-06-15T13:38:36.017Z,26.51
2023-06-15T13:41:38.387Z,26.47
2023-06-15T13:44:41.050Z,26.31
2023-06-15T13:47:43.874Z,26.42
2023-06-15T13:50:48.557Z,26.21
2023-06-15T13:53:50.884Z,26.36
2023-06-15T13:56:53.709Z,26.33
2023-06-15T13:59:56.291Z,26.30
2023-06-15T14:03:05.473Z,26.12
2023-06-15T14:06:10.850Z,26.22
2023-06-15T14:09:16.109Z,26.23
2023-06-15T14:12:21.320Z,26.29
2023-06-15T14:15:26.266Z,26.24
2023-06-15T14:18:31.403Z,26.12
2023-06-15T14:21:36.097Z,26.23
2023-06-15T14:24:41.497Z,26.26
2023-06-15T14:27:48.649Z,26.27
2023-06-15T14:30:54.442Z,26.28
2023-06-15T14:33:59.140Z,26.33
2023-06-15T14:37:01.540Z,26.36
2023-06-15T14:40:06.533Z,26.27
2023-06-15T14:43:11.027Z,26.19
2023-06-15T14:46:13.522Z,25.94
2023-06-15T14:49:18.865Z,25.87
2023-06-15T14:52:23.658Z,25.96
2023-06-15T14:55:26.237Z,25.70
2023-06-15T14:58:30.759Z,25.53
2023-06-15T15:01:39.560Z,25.70
2023-06-15T15:04:42.102Z,25.91
2023-06-15T15:07:46.960Z,25.89
2023-06-15T15:10:49.389Z,25.52
2023-06-15T15:13:51.737Z,25.68
2023-06-15T15:16:54.137Z,25.68
2023-06-15T15:19:58.842Z,25.66
2023-06-15T15:23:03.725Z,25.65
2023-06-15T15:26:09.291Z,25.61
2023-06-15T15:29:13.876Z,25.61
2023-06-15T15:32:18.586Z,25.73
2023-06-15T15:35:24.055Z,25.67
2023-06-15T15:38:26.421Z,25.61
2023-06-15T15:41:28.758Z,25.56
2023-06-15T15:44:33.352Z,25.53
2023-06-15T15:47:35.854Z,25.38
2023-06-15T15:50:39.160Z,25.10
2023-06-15T15:53:44.136Z,25.22
2023-06-15T15:56:46.280Z,25.49
2023-06-15T15:59:48.579Z,25.32
2023-06-15T16:02:51.045Z,25.34
2023-06-15T16:05:55.958Z,25.15
2023-06-15T16:08:58.268Z,25.24
2023-06-15T16:12:03.763Z,25.17
2023-06-15T16:15:12.208Z,25.26
2023-06-15T16:18:15.139Z,25.09
2023-06-15T16:21:17.452Z,25.08
2023-06-15T16:24:19.851Z,25.08
2023-06-15T16:27:24.410Z,25.14
2023-06-15T16:30:28.964Z,24.99
2023-06-15T16:33:33.862Z,25.05
2023-06-15T16:36:43.393Z,25.07
2023-06-15T16:39:50.680Z,25.03
2023-06-15T16:42:57.812Z,24.95
2023-06-15T16:46:02.361Z,24.93
2023-06-15T16:49:04.787Z,24.86
2023-06-15T16:52:11.644Z,24.73
2023-06-15T16:55:16.449Z,24.82
2023-06-15T16:58:22.670Z,24.80
2023-06-15T17:01:25.414Z,24.73
2023-06-15T17:04:28.274Z,24.75
2023-06-15T17:07:33.352Z,24.71
2023-06-15T17:10:35.546Z,24.71
2023-06-15T17:13:37.908Z,24.70
2023-06-15T17:16:40.868Z,24.64
2023-06-15T17:19:45.019Z,24.66
2023-06-15T17:22:52.297Z,24.61
2023-06-15T17:25:56.982Z,24.61
2023-06-15T17:28:59.512Z,24.61
2023-06-15T17:32:02.099Z,24.36
2023-06-15T17:35:04.930Z,24.40
2023-06-15T17:38:11.292Z,24.35
2023-06-15T17:41:15.654Z,24.33
2023-06-15T17:44:20.328Z,24.26
2023-06-15T17:47:25.405Z,24.25
2023-06-15T17:50:27.641Z,24.21
2023-06-15T17:53:33.496Z,24.19
2023-06-15T17:56:36.574Z,24.06
2023-06-15T17:59:41.673Z,23.96
2023-06-15T18:02:46.450Z,24.00
2023-06-15T18:05:52.132Z,24.04
2023-06-15T18:08:55.879Z,24.01
2023-06-15T18:11:58.455Z,23.98
2023-06-15T18:15:01.213Z,23.97
2023-06-15T18:18:04.467Z,23.98
2023-06-15T18:21:09.143Z,23.91
2023-06-15T18:24:13.080Z,23.93
2023-06-15T18:27:19.121Z,23.89
2023-06-15T18:30:21.636Z,23.76
2023-06-15T18:33:27.193Z,23.79
2023-06-15T18:36:30.106Z,23.76
2023-06-15T18:39:32.363Z,23.64
2023-06-15T18:42:40.295Z,23.66
2023-06-15T18:45:44.869Z,23.54
2023-06-15T18:48:49.558Z,23.38
2023-06-15T18:51:54.382Z,23.49
2023-06-15T18:54:58.867Z,23.38
2023-06-15T18:58:04.930Z,23.36
2023-06-15T19:01:07.447Z,23.31
2023-06-15T19:04:12.121Z,23.24
2023-06-15T19:07:15.564Z,23.14
2023-06-15T19:10:18.038Z,23.07
2023-06-15T19:13:26.271Z,23.02
2023-06-15T19:16:32.019Z,22.91
2023-06-15T19:19:39.697Z,22.91
2023-06-15T19:22:45.557Z,22.94
2023-06-15T19:25:53.806Z,22.81
2023-06-15T19:28:56.375Z,22.93
2023-06-15T19:31:58.658Z,22.90
2023-06-15T19:35:01.032Z,22.90
2023-06-15T19:38:05.925Z,22.80
2023-06-15T19:41:08.643Z,22.71
2023-06-15T19:44:13.237Z,22.70
2023-06-15T19:47:18.254Z,22.56
2023-06-15T19:50:20.845Z,22.62
2023-06-15T19:53:23.755Z,22.54
2023-06-15T19:56:28.356Z,22.52
2023-06-15T19:59:32.964Z,22.46
2023-06-15T20:02:39.871Z,22.44
2023-06-15T20:05:42.254Z,22.33
2023-06-15T20:08:49.455Z,22.33
2023-06-15T20:11:52.194Z,22.15
2023-06-15T20:14:56.708Z,22.28
2023-06-15T20:18:01.471Z,22.24
2023-06-15T20:21:06.793Z,22.23
2023-06-15T20:24:09.091Z,22.19
2023-06-15T20:27:11.855Z,22.15
2023-06-15T20:30:16.641Z,22.05
2023-06-15T20:33:19.114Z,22.05
2023-06-15T20:36:21.630Z,21.93
2023-06-15T20:39:30.031Z,21.88
2023-06-15T20:42:32.521Z,21.84
2023-06-15T20:45:37.629Z,21.86
2023-06-15T20:48:39.836Z,21.82
2023-06-15T20:51:42.049Z,21.76
2023-06-15T20:54:44.591Z,21.73
2023-06-15T20:57:46.896Z,21.79
2023-06-15T21:00:49.474Z,21.75
2023-06-15T21:03:52.553Z,21.66
2023-06-15T21:06:54.947Z,21.58
2023-06-15T21:09:57.873Z,21.52
2023-06-15T21:13:02.676Z,21.42
2023-06-15T21:16:08.450Z,21.24
2023-06-15T21:19:11.027Z,21.19
2023-06-15T21:22:13.675Z,21.14
2023-06-15T21:25:18.902Z,21.07
2023-06-15T21:28:21.308Z,21.10
2023-06-15T21:31:23.922Z,21.21
2023-06-15T21:34:27.271Z,21.25
2023-06-15T21:37:29.622Z,21.25
2023-06-15T21:40:34.860Z,21.21
2023-06-15T21:43:39.326Z,21.26
2023-06-15T21:46:44.250Z,21.16
2023-06-15T21:49:46.961Z,21.07
2023-06-15T21:52:51.559Z,20.92
2023-06-15T21:55:53.972Z,20.92
2023-06-15T21:58:56.290Z,20.86
2023-06-15T22:01:58.765Z,20.75
2023-06-15T22:05:01.268Z,20.73
2023-06-15T22:08:06.347Z,20.72
2023-06-15T22:11:11.717Z,20.71
2023-06-15T22:14:18.611Z,20.73
2023-06-15T22:17:22.302Z,20.72
2023-06-15T22:20:28.135Z,20.65
2023-06-15T22:23:33.642Z,20.69
2023-06-15T22:26:45.557Z,20.68
2023-06-15T22:29:52.998Z,20.60
2023-06-15T22:32:56.097Z,20.51
2023-06-15T22:36:00.834Z,20.44
2023-06-15T22:39:03.627Z,20.28
2023-06-15T22:42:09.791Z,20.19
2023-06-15T22:45:17.521Z,20.14
2023-06-15T22:48:23.719Z,20.00
2023-06-15T22:51:30.755Z,20.04
2023-06-15T22:54:33.258Z,20.05
2023-06-15T22:57:38.001Z,20.03
2023-06-15T23:00:42.572Z,19.86
2023-06-15T23:03:44.906Z,20.11
2023-06-15T23:06:48.359Z,20.18
2023-06-15T23:09:53.054Z,20.30
2023-06-15T23:12:57.421Z,20.17
2023-06-15T23:16:01.275Z,20.11
2023-06-15T23:19:06.395Z,20.13
2023-06-15T23:22:12.404Z,20.02
2023-06-15T23:25:17.000Z,19.97
2023-06-15T23:28:20.555Z,19.96
2023-06-15T23:31:30.901Z,19.93
2023-06-15T23:34:36.143Z,19.86
2023-06-15T23:37:38.437Z,19.80
2023-06-15T23:40:44.001Z,19.68
2023-06-15T23:43:51.128Z,19.65
2023-06-15T23:46:53.440Z,19.75
2023-06-15T23:49:58.708Z,19.49
2023-06-15T23:53:01.122Z,19.73
2023-06-15T23:56:06.563Z,19.67
2023-06-15T23:59:09.442Z,19.60
